sensor_id;sensor_type;location;lat;lon;timestamp;pressure;altitude;pressure_sealevel;temperature
7830;BMP180;3960;51.86894000;5.39848000;2023-02-23T00:00:26;101308.84;;;8.11
7830;BMP180;3960;51.86894000;5.39848000;2023-02-23T00:02:58;101319.72;;;8.18
7830;BMP180;3960;51.86894000;5.39848000;2023-02-23T00:05:25;101317.00;;;8.18
7830;BMP180;3960;51.86894000;5.39848000;2023-02-23T00:07:51;101309.59;;;8.11
7830;BMP180;3960;51.86894000;5.39848000;2023-02-23T00:10:18;101321.56;;;8.14
7830;BMP180;3960;51.86894000;5.39848000;2023-02-23T00:12:46;101328.94;;;8.17
7830;BMP180;3960;51.86894000;5.39848000;2023-02-23T00:15:13;101333.97;;;8.18
7830;BMP180;3960;51.86894000;5.39848000;2023-02-23T00:17:40;101313.41;;;8.03
7830;BMP180;3960;51.86894000;5.39848000;2023-02-23T00:20:08;101344.03;;;8.21
7830;BMP180;3960;51.86894000;5.39848000;2023-02-23T00:22:38;101320.41;;;8.11
7830;BMP180;3960;51.86894000;5.39848000;2023-02-23T00:25:05;101340.53;;;8.21
7830;BMP180;3960;51.86894000;5.39848000;2023-02-23T00:27:34;101322.72;;;8.13
7830;BMP180;3960;51.86894000;5.39848000;2023-02-23T00:30:00;101326.59;;;8.15
7830;BMP180;3960;51.86894000;5.39848000;2023-02-23T00:32:25;101320.81;;;8.13
7830;BMP180;3960;51.86894000;5.39848000;2023-02-23T00:34:51;101324.69;;;8.16
7830;BMP180;3960;51.86894000;5.39848000;2023-02-23T00:37:17;101328.97;;;8.20
7830;BMP180;3960;51.86894000;5.39848000;2023-02-23T00:39:42;101324.34;;;8.21
7830;BMP180;3960;51.86894000;5.39848000;2023-02-23T00:42:08;101314.25;;;8.11
7830;BMP180;3960;51.86894000;5.39848000;2023-02-23T00:44:34;101326.28;;;8.20
7830;BMP180;3960;51.86894000;5.39848000;2023-02-23T00:47:00;101305.34;;;8.07
7830;BMP180;3960;51.86894000;5.39848000;2023-02-23T00:49:25;101320.06;;;8.16
7830;BMP180;3960;51.86894000;5.39848000;2023-02-23T00:51:51;101322.41;;;8.18
7830;BMP180;3960;51.86894000;5.39848000;2023-02-23T00:54:17;101322.44;;;8.21
7830;BMP180;3960;51.86894000;5.39848000;2023-02-23T00:56:44;101329.75;;;8.21
7830;BMP180;3960;51.86894000;5.39848000;2023-02-23T00:59:10;101293.72;;;7.96
7830;BMP180;3960;51.86894000;5.39848000;2023-02-23T01:01:36;101323.16;;;8.15
7830;BMP180;3960;51.86894000;5.39848000;2023-02-23T01:04:03;101333.22;;;8.21
7830;BMP180;3960;51.86894000;5.39848000;2023-02-23T01:06:28;101306.44;;;8.02
7830;BMP180;3960;51.86894000;5.39848000;2023-02-23T01:08:53;101316.53;;;8.09
7830;BMP180;3960;51.86894000;5.39848000;2023-02-23T01:11:24;101318.44;;;8.08
7830;BMP180;3960;51.86894000;5.39848000;2023-02-23T01:13:53;101330.13;;;8.19
7830;BMP180;3960;51.86894000;5.39848000;2023-02-23T01:16:21;101318.88;;;8.14
7830;BMP180;3960;51.86894000;5.39848000;2023-02-23T01:18:47;101320.81;;;8.13
7830;BMP180;3960;51.86894000;5.39848000;2023-02-23T01:21:21;101300.72;;;8.04
7830;BMP180;3960;51.86894000;5.39848000;2023-02-23T01:23:48;101296.81;;;7.98
7830;BMP180;3960;51.86894000;5.39848000;2023-02-23T01:26:27;101309.19;;;8.06
7830;BMP180;3960;51.86894000;5.39848000;2023-02-23T01:28:58;101337.81;;;8.17
7830;BMP180;3960;51.86894000;5.39848000;2023-02-23T01:31:27;101327.78;;;8.14
7830;BMP180;3960;51.86894000;5.39848000;2023-02-23T01:33:59;101329.63;;;8.10
7830;BMP180;3960;51.86894000;5.39848000;2023-02-23T01:36:26;101325.00;;;8.07
7830;BMP180;3960;51.86894000;5.39848000;2023-02-23T01:38:53;101335.03;;;8.10
7830;BMP180;3960;51.86894000;5.39848000;2023-02-23T01:41:21;101340.84;;;8.12
7830;BMP180;3960;51.86894000;5.39848000;2023-02-23T01:44:00;101344.28;;;8.13
7830;BMP180;3960;51.86894000;5.39848000;2023-02-23T01:46:33;101334.63;;;8.08
7830;BMP180;3960;51.86894000;5.39848000;2023-02-23T01:48:59;101343.91;;;8.11
7830;BMP180;3960;51.86894000;5.39848000;2023-02-23T01:51:31;101333.09;;;8.07
7830;BMP180;3960;51.86894000;5.39848000;2023-02-23T01:54:00;101330.69;;;7.99
7830;BMP180;3960;51.86894000;5.39848000;2023-02-23T01:56:32;101338.84;;;8.06
7830;BMP180;3960;51.86894000;5.39848000;2023-02-23T01:59:02;101338.50;;;8.07
7830;BMP180;3960;51.86894000;5.39848000;2023-02-23T02:01:29;101323.75;;;7.95
7830;BMP180;3960;51.86894000;5.39848000;2023-02-23T02:03:57;101324.53;;;7.95
7830;BMP180;3960;51.86894000;5.39848000;2023-02-23T02:06:24;101312.53;;;7.89
7830;BMP180;3960;51.86894000;5.39848000;2023-02-23T02:08:54;101333.44;;;8.02
7830;BMP180;3960;51.86894000;5.39848000;2023-02-23T02:11:22;101322.19;;;7.90
7830;BMP180;3960;51.86894000;5.39848000;2023-02-23T02:13:59;101328.41;;;8.01
7830;BMP180;3960;51.86894000;5.39848000;2023-02-23T02:17:11;101316.41;;;7.92
7830;BMP180;3960;51.86894000;5.39848000;2023-02-23T02:20:03;101327.66;;;8.00
7830;BMP180;3960;51.86894000;5.39848000;2023-02-23T02:41:24;101317.94;;;7.89
7830;BMP180;3960;51.86894000;5.39848000;2023-02-23T02:44:01;101343.44;;;8.02
7830;BMP180;3960;51.86894000;5.39848000;2023-02-23T02:46:36;101330.28;;;7.94
7830;BMP180;3960;51.86894000;5.39848000;2023-02-23T02:52:46;101347.28;;;8.01
7830;BMP180;3960;51.86894000;5.39848000;2023-02-23T02:55:17;101327.59;;;7.94
7830;BMP180;3960;51.86894000;5.39848000;2023-02-23T02:57:45;101333.75;;;7.94
7830;BMP180;3960;51.86894000;5.39848000;2023-02-23T03:00:29;101317.94;;;7.89
7830;BMP180;3960;51.86894000;5.39848000;2023-02-23T03:06:11;101326.41;;;7.88
7830;BMP180;3960;51.86894000;5.39848000;2023-02-23T03:09:14;101327.56;;;7.90
7830;BMP180;3960;51.86894000;5.39848000;2023-02-23T03:18:29;101344.19;;;7.99
7830;BMP180;3960;51.86894000;5.39848000;2023-02-23T03:21:44;101341.81;;;7.91
7830;BMP180;3960;51.86894000;5.39848000;2023-02-23T03:24:55;101346.50;;;7.97
7830;BMP180;3960;51.86894000;5.39848000;2023-02-23T03:27:50;101341.44;;;7.89
7830;BMP180;3960;51.86894000;5.39848000;2023-02-23T03:30:39;101354.19;;;7.95
7830;BMP180;3960;51.86894000;5.39848000;2023-02-23T03:33:33;101321.31;;;7.79
7830;BMP180;3960;51.86894000;5.39848000;2023-02-23T03:36:25;101348.78;;;7.95
7830;BMP180;3960;51.86894000;5.39848000;2023-02-23T03:39:16;101342.59;;;7.88
7830;BMP180;3960;51.86894000;5.39848000;2023-02-23T03:42:04;101340.25;;;7.86
7830;BMP180;3960;51.86894000;5.39848000;2023-02-23T03:44:51;101337.53;;;7.86
7830;BMP180;3960;51.86894000;5.39848000;2023-02-23T03:47:39;101343.72;;;7.87
7830;BMP180;3960;51.86894000;5.39848000;2023-02-23T03:50:32;101360.72;;;7.94
7830;BMP180;3960;51.86894000;5.39848000;2023-02-23T03:53:20;101347.56;;;7.86
7830;BMP180;3960;51.86894000;5.39848000;2023-02-23T03:56:08;101338.28;;;7.80
7830;BMP180;3960;51.86894000;5.39848000;2023-02-23T03:58:57;101354.47;;;7.83
7830;BMP180;3960;51.86894000;5.39848000;2023-02-23T04:01:44;101353.66;;;7.79
7830;BMP180;3960;51.86894000;5.39848000;2023-02-23T04:04:29;101368.03;;;7.90
7830;BMP180;3960;51.86894000;5.39848000;2023-02-23T04:07:16;101361.78;;;7.83
7830;BMP180;3960;51.86894000;5.39848000;2023-02-23T04:10:02;101355.22;;;7.80
7830;BMP180;3960;51.86894000;5.39848000;2023-02-23T04:13:10;101378.06;;;7.93
7830;BMP180;3960;51.86894000;5.39848000;2023-02-23T04:15:48;101356.34;;;7.79
7830;BMP180;3960;51.86894000;5.39848000;2023-02-23T04:18:18;101382.69;;;7.93
7830;BMP180;3960;51.86894000;5.39848000;2023-02-23T04:20:45;101368.75;;;7.87
7830;BMP180;3960;51.86894000;5.39848000;2023-02-23T04:23:10;101372.59;;;7.86
7830;BMP180;3960;51.86894000;5.39848000;2023-02-23T04:25:36;101375.69;;;7.88
7830;BMP180;3960;51.86894000;5.39848000;2023-02-23T04:28:01;101372.22;;;7.84
7830;BMP180;3960;51.86894000;5.39848000;2023-02-23T04:30:27;101382.66;;;7.89
7830;BMP180;3960;51.86894000;5.39848000;2023-02-23T04:32:54;101371.84;;;7.86
7830;BMP180;3960;51.86894000;5.39848000;2023-02-23T04:35:19;101371.06;;;7.85
7830;BMP180;3960;51.86894000;5.39848000;2023-02-23T04:37:45;101387.66;;;7.91
7830;BMP180;3960;51.86894000;5.39848000;2023-02-23T04:40:11;101373.78;;;7.85
7830;BMP180;3960;51.86894000;5.39848000;2023-02-23T04:42:38;101364.06;;;7.77
7830;BMP180;3960;51.86894000;5.39848000;2023-02-23T04:45:04;101377.63;;;7.88
7830;BMP180;3960;51.86894000;5.39848000;2023-02-23T04:47:30;101360.22;;;7.78
7830;BMP180;3960;51.86894000;5.39848000;2023-02-23T04:49:55;101380.34;;;7.88
7830;BMP180;3960;51.86894000;5.39848000;2023-02-23T04:52:20;101388.78;;;7.86
7830;BMP180;3960;51.86894000;5.39848000;2023-02-23T04:54:46;101370.25;;;7.81
7830;BMP180;3960;51.86894000;5.39848000;2023-02-23T04:57:12;101342.31;;;7.56
7830;BMP180;3960;51.86894000;5.39848000;2023-02-23T04:59:37;101372.19;;;7.81
7830;BMP180;3960;51.86894000;5.39848000;2023-02-23T05:02:02;101370.63;;;7.80
7830;BMP180;3960;51.86894000;5.39848000;2023-02-23T05:04:28;101378.34;;;7.81
7830;BMP180;3960;51.86894000;5.39848000;2023-02-23T05:06:53;101375.59;;;7.78
7830;BMP180;3960;51.86894000;5.39848000;2023-02-23T05:09:18;101368.28;;;7.75
7830;BMP180;3960;51.86894000;5.39848000;2023-02-23T05:11:44;101378.31;;;7.78
7830;BMP180;3960;51.86894000;5.39848000;2023-02-23T05:14:10;101379.81;;;7.75
7830;BMP180;3960;51.86894000;5.39848000;2023-02-23T05:16:37;101373.63;;;7.71
7830;BMP180;3960;51.86894000;5.39848000;2023-02-23T05:19:02;101373.25;;;7.73
7830;BMP180;3960;51.86894000;5.39848000;2023-02-23T05:21:27;101384.47;;;7.75
7830;BMP180;3960;51.86894000;5.39848000;2023-02-23T05:23:52;101401.84;;;7.81
7830;BMP180;3960;51.86894000;5.39848000;2023-02-23T05:26:18;101389.47;;;7.76
7830;BMP180;3960;51.86894000;5.39848000;2023-02-23T05:28:44;101401.84;;;7.81
7830;BMP180;3960;51.86894000;5.39848000;2023-02-23T05:31:10;101407.59;;;7.79
7830;BMP180;3960;51.86894000;5.39848000;2023-02-23T05:33:36;101388.22;;;7.67
7830;BMP180;3960;51.86894000;5.39848000;2023-02-23T05:36:09;101387.09;;;7.68
7830;BMP180;3960;51.86894000;5.39848000;2023-02-23T05:38:35;101382.03;;;7.66
7830;BMP180;3960;51.86894000;5.39848000;2023-02-23T05:41:06;101400.66;;;7.78
7830;BMP180;3960;51.86894000;5.39848000;2023-02-23T05:43:31;101375.81;;;7.59
7830;BMP180;3960;51.86894000;5.39848000;2023-02-23T05:45:56;101400.66;;;7.78
7830;BMP180;3960;51.86894000;5.39848000;2023-02-23T05:48:22;101397.91;;;7.71
7830;BMP180;3960;51.86894000;5.39848000;2023-02-23T05:50:47;101390.97;;;7.70
7830;BMP180;3960;51.86894000;5.39848000;2023-02-23T05:53:13;101386.69;;;7.69
7830;BMP180;3960;51.86894000;5.39848000;2023-02-23T05:55:39;101401.38;;;7.72
7830;BMP180;3960;51.86894000;5.39848000;2023-02-23T05:58:04;101404.84;;;7.72
7830;BMP180;3960;51.86894000;5.39848000;2023-02-23T06:00:29;101414.91;;;7.79
7830;BMP180;3960;51.86894000;5.39848000;2023-02-23T06:02:55;101395.50;;;7.63
7830;BMP180;3960;51.86894000;5.39848000;2023-02-23T06:05:20;101414.47;;;7.73
7830;BMP180;3960;51.86894000;5.39848000;2023-02-23T06:07:45;101384.25;;;7.54
7830;BMP180;3960;51.86894000;5.39848000;2023-02-23T06:10:14;101390.44;;;7.58
7830;BMP180;3960;51.86894000;5.39848000;2023-02-23T06:12:39;101390.78;;;7.53
7830;BMP180;3960;51.86894000;5.39848000;2023-02-23T06:15:05;101420.63;;;7.70
7830;BMP180;3960;51.86894000;5.39848000;2023-02-23T06:17:34;101334.97;;;7.14
7830;BMP180;3960;51.86894000;5.39848000;2023-02-23T06:20:03;101400.84;;;7.56
7830;BMP180;3960;51.86894000;5.39848000;2023-02-23T06:22:29;101436.44;;;7.75
7830;BMP180;3960;51.86894000;5.39848000;2023-02-23T06:24:54;101348.81;;;7.16
7830;BMP180;3960;51.86894000;5.39848000;2023-02-23T06:27:22;101433.34;;;7.73
7830;BMP180;3960;51.86894000;5.39848000;2023-02-23T06:29:47;101391.81;;;7.41
7830;BMP180;3960;51.86894000;5.39848000;2023-02-23T06:32:13;101416.59;;;7.54
7830;BMP180;3960;51.86894000;5.39848000;2023-02-23T06:34:38;101429.75;;;7.62
7830;BMP180;3960;51.86894000;5.39848000;2023-02-23T06:37:04;101443.31;;;7.69
7830;BMP180;3960;51.86894000;5.39848000;2023-02-23T06:39:30;101430.16;;;7.61
7830;BMP180;3960;51.86894000;5.39848000;2023-02-23T06:41:55;101438.66;;;7.66
7830;BMP180;3960;51.86894000;5.39848000;2023-02-23T06:44:21;101446.34;;;7.64
7830;BMP180;3960;51.86894000;5.39848000;2023-02-23T06:46:46;101436.63;;;7.56
7830;BMP180;3960;51.86894000;5.39848000;2023-02-23T06:49:12;101436.22;;;7.54
7830;BMP180;3960;51.86894000;5.39848000;2023-02-23T06:51:37;101428.06;;;7.47
7830;BMP180;3960;51.86894000;5.39848000;2023-02-23T06:54:02;101431.22;;;7.53
7830;BMP180;3960;51.86894000;5.39848000;2023-02-23T06:56:28;101425.28;;;7.40
7830;BMP180;3960;51.86894000;5.39848000;2023-02-23T06:58:53;101459.03;;;7.64
7830;BMP180;3960;51.86894000;5.39848000;2023-02-23T07:01:19;101468.00;;;7.71
7830;BMP180;3960;51.86894000;5.39848000;2023-02-23T07:03:45;101464.16;;;7.72
7830;BMP180;3960;51.86894000;5.39848000;2023-02-23T07:06:11;101450.53;;;7.58
7830;BMP180;3960;51.86894000;5.39848000;2023-02-23T07:08:36;101474.13;;;7.68
7830;BMP180;3960;51.86894000;5.39848000;2023-02-23T07:11:14;101479.56;;;7.72
7830;BMP180;3960;51.86894000;5.39848000;2023-02-23T07:13:42;101486.91;;;7.75
7830;BMP180;3960;51.86894000;5.39848000;2023-02-23T07:16:08;101477.69;;;7.76
7830;BMP180;3960;51.86894000;5.39848000;2023-02-23T07:18:33;101463.72;;;7.67
7830;BMP180;3960;51.86894000;5.39848000;2023-02-23T07:20:59;101477.69;;;7.76
7830;BMP180;3960;51.86894000;5.39848000;2023-02-23T07:23:24;101478.06;;;7.78
7830;BMP180;3960;51.86894000;5.39848000;2023-02-23T07:25:51;101488.50;;;7.83
7830;BMP180;3960;51.86894000;5.39848000;2023-02-23T07:28:16;101490.47;;;7.86
7830;BMP180;3960;51.86894000;5.39848000;2023-02-23T07:30:42;101446.97;;;7.51
7830;BMP180;3960;51.86894000;5.39848000;2023-02-23T07:33:07;101474.94;;;7.72
7830;BMP180;3960;51.86894000;5.39848000;2023-02-23T07:35:33;101498.16;;;7.84
7830;BMP180;3960;51.86894000;5.39848000;2023-02-23T07:37:58;101490.03;;;7.80
7830;BMP180;3960;51.86894000;5.39848000;2023-02-23T07:40:23;101509.84;;;7.95
7830;BMP180;3960;51.86894000;5.39848000;2023-02-23T07:42:50;101490.41;;;7.79
7830;BMP180;3960;51.86894000;5.39848000;2023-02-23T07:45:16;101520.28;;;7.96
7830;BMP180;3960;51.86894000;5.39848000;2023-02-23T07:47:42;101516.44;;;7.97
7830;BMP180;3960;51.86894000;5.39848000;2023-02-23T07:50:08;101483.38;;;7.71
7830;BMP180;3960;51.86894000;5.39848000;2023-02-23T07:52:38;101534.94;;;7.98
7830;BMP180;3960;51.86894000;5.39848000;2023-02-23T07:55:04;101524.88;;;7.95
7830;BMP180;3960;51.86894000;5.39848000;2023-02-23T07:57:30;101515.94;;;7.88
7830;BMP180;3960;51.86894000;5.39848000;2023-02-23T07:59:59;101536.91;;;8.01
7830;BMP180;3960;51.86894000;5.39848000;2023-02-23T08:02:24;101515.22;;;7.91
7830;BMP180;3960;51.86894000;5.39848000;2023-02-23T08:04:50;101528.00;;;8.01
7830;BMP180;3960;51.86894000;5.39848000;2023-02-23T08:07:18;101526.47;;;8.00
7830;BMP180;3960;51.86894000;5.39848000;2023-02-23T08:09:43;101521.78;;;7.94
7830;BMP180;3960;51.86894000;5.39848000;2023-02-23T08:12:09;101550.84;;;8.10
7830;BMP180;3960;51.86894000;5.39848000;2023-02-23T08:14:34;101538.81;;;8.01
7830;BMP180;3960;51.86894000;5.39848000;2023-02-23T08:16:59;101534.50;;;7.96
7830;BMP180;3960;51.86894000;5.39848000;2023-02-23T08:19:25;101559.81;;;8.14
7830;BMP180;3960;51.86894000;5.39848000;2023-02-23T08:21:52;101563.28;;;8.15
7830;BMP180;3960;51.86894000;5.39848000;2023-02-23T08:24:17;101541.50;;;8.01
7830;BMP180;3960;51.86894000;5.39848000;2023-02-23T08:26:42;101543.81;;;8.02
7830;BMP180;3960;51.86894000;5.39848000;2023-02-23T08:29:08;101569.47;;;8.19
7830;BMP180;3960;51.86894000;5.39848000;2023-02-23T08:31:33;101562.13;;;8.16
7830;BMP180;3960;51.86894000;5.39848000;2023-02-23T08:33:59;101557.88;;;8.15
7830;BMP180;3960;51.86894000;5.39848000;2023-02-23T08:36:25;101527.22;;;7.97
7830;BMP180;3960;51.86894000;5.39848000;2023-02-23T08:38:50;101570.28;;;8.23
7830;BMP180;3960;51.86894000;5.39848000;2023-02-23T08:41:18;101570.72;;;8.28
7830;BMP180;3960;51.86894000;5.39848000;2023-02-23T08:43:44;101574.66;;;8.34
7830;BMP180;3960;51.86894000;5.39848000;2023-02-23T08:46:10;101573.88;;;8.34
7830;BMP180;3960;51.86894000;5.39848000;2023-02-23T08:48:35;101566.13;;;8.29
7830;BMP180;3960;51.86894000;5.39848000;2023-02-23T08:51:03;101562.59;;;8.25
7830;BMP180;3960;51.86894000;5.39848000;2023-02-23T08:53:28;101565.78;;;8.34
7830;BMP180;3960;51.86894000;5.39848000;2023-02-23T08:55:56;101579.00;;;8.46
7830;BMP180;3960;51.86894000;5.39848000;2023-02-23T08:58:21;101569.69;;;8.40
7830;BMP180;3960;51.86894000;5.39848000;2023-02-23T09:00:47;101587.22;;;8.60
7830;BMP180;3960;51.86894000;5.39848000;2023-02-23T09:03:12;101575.97;;;8.54
7830;BMP180;3960;51.86894000;5.39848000;2023-02-23T09:05:38;101589.59;;;8.68
7830;BMP180;3960;51.86894000;5.39848000;2023-02-23T09:08:04;101596.56;;;8.69
7830;BMP180;3960;51.86894000;5.39848000;2023-02-23T09:10:29;101552.34;;;8.41
7830;BMP180;3960;51.86894000;5.39848000;2023-02-23T09:12:56;101575.97;;;8.51
7830;BMP180;3960;51.86894000;5.39848000;2023-02-23T09:15:21;101591.13;;;8.66
7830;BMP180;3960;51.86894000;5.39848000;2023-02-23T09:17:47;101608.19;;;8.73
7830;BMP180;3960;51.86894000;5.39848000;2023-02-23T09:20:14;101603.09;;;8.68
7830;BMP180;3960;51.86894000;5.39848000;2023-02-23T09:22:43;101596.13;;;8.60
7830;BMP180;3960;51.86894000;5.39848000;2023-02-23T09:25:14;101608.50;;;8.68
7830;BMP180;3960;51.86894000;5.39848000;2023-02-23T09:27:42;101610.44;;;8.68
7830;BMP180;3960;51.86894000;5.39848000;2023-02-23T09:30:08;101610.47;;;8.71
7830;BMP180;3960;51.86894000;5.39848000;2023-02-23T09:32:34;101611.63;;;8.70
7830;BMP180;3960;51.86894000;5.39848000;2023-02-23T09:35:00;101599.59;;;8.64
7830;BMP180;3960;51.86894000;5.39848000;2023-02-23T09:37:25;101608.56;;;8.75
7830;BMP180;3960;51.86894000;5.39848000;2023-02-23T09:39:50;101623.31;;;8.84
7830;BMP180;3960;51.86894000;5.39848000;2023-02-23T09:42:27;101606.69;;;8.79
7830;BMP180;3960;51.86894000;5.39848000;2023-02-23T09:45:03;101629.59;;;8.95
7830;BMP180;3960;51.86894000;5.39848000;2023-02-23T09:50:20;101628.47;;;9.03
7830;BMP180;3960;51.86894000;5.39848000;2023-02-23T09:52:50;101627.75;;;9.06
7830;BMP180;3960;51.86894000;5.39848000;2023-02-23T09:55:16;101635.50;;;9.11
7830;BMP180;3960;51.86894000;5.39848000;2023-02-23T09:57:44;101608.75;;;8.96
7830;BMP180;3960;51.86894000;5.39848000;2023-02-23T10:00:25;101619.22;;;9.04
7830;BMP180;3960;51.86894000;5.39848000;2023-02-23T10:03:10;101641.34;;;9.17
7830;BMP180;3960;51.86894000;5.39848000;2023-02-23T10:05:44;101639.78;;;9.16
7830;BMP180;3960;51.86894000;5.39848000;2023-02-23T10:10:45;101632.91;;;9.25
7830;BMP180;3960;51.86894000;5.39848000;2023-02-23T10:15:51;101625.22;;;9.31
7830;BMP180;3960;51.86894000;5.39848000;2023-02-23T10:21:11;101636.88;;;9.42
7830;BMP180;3960;51.86894000;5.39848000;2023-02-23T10:23:44;101609.75;;;9.28
7830;BMP180;3960;51.86894000;5.39848000;2023-02-23T10:26:16;101640.38;;;9.49
7830;BMP180;3960;51.86894000;5.39848000;2023-02-23T10:28:42;101648.53;;;9.52
7830;BMP180;3960;51.86894000;5.39848000;2023-02-23T10:31:29;101643.94;;;9.60
7830;BMP180;3960;51.86894000;5.39848000;2023-02-23T10:34:03;101652.81;;;9.60
7830;BMP180;3960;51.86894000;5.39848000;2023-02-23T10:36:44;101638.53;;;9.56
7830;BMP180;3960;51.86894000;5.39848000;2023-02-23T10:39:12;101647.81;;;9.59
7830;BMP180;3960;51.86894000;5.39848000;2023-02-23T10:41:38;101649.75;;;9.62
7830;BMP180;3960;51.86894000;5.39848000;2023-02-23T10:44:05;101643.97;;;9.63
7830;BMP180;3960;51.86894000;5.39848000;2023-02-23T10:46:37;101645.94;;;9.70
7830;BMP180;3960;51.86894000;5.39848000;2023-02-23T10:49:03;101648.28;;;9.71
7830;BMP180;3960;51.86894000;5.39848000;2023-02-23T10:51:33;101650.66;;;9.83
7830;BMP180;3960;51.86894000;5.39848000;2023-02-23T10:54:36;101651.84;;;9.93
7830;BMP180;3960;51.86894000;5.39848000;2023-02-23T10:57:03;101647.97;;;9.90
7830;BMP180;3960;51.86894000;5.39848000;2023-02-23T10:59:30;101646.78;;;9.91
7830;BMP180;3960;51.86894000;5.39848000;2023-02-23T11:01:56;101657.31;;;10.00
7830;BMP180;3960;51.86894000;5.39848000;2023-02-23T11:04:26;101650.31;;;9.95
7830;BMP180;3960;51.86894000;5.39848000;2023-02-23T11:07:08;101656.16;;;10.04
7830;BMP180;3960;51.86894000;5.39848000;2023-02-23T11:09:33;101629.41;;;9.89
7830;BMP180;3960;51.86894000;5.39848000;2023-02-23T11:12:00;101662.41;;;10.12
7830;BMP180;3960;51.86894000;5.39848000;2023-02-23T11:14:27;101659.69;;;10.12
7830;BMP180;3960;51.86894000;5.39848000;2023-02-23T11:16:55;101662.78;;;10.20
7830;BMP180;3960;51.86894000;5.39848000;2023-02-23T11:19:33;101660.09;;;10.24
7830;BMP180;3960;51.86894000;5.39848000;2023-02-23T11:21:59;101640.78;;;10.18
7830;BMP180;3960;51.86894000;5.39848000;2023-02-23T11:24:27;101652.78;;;10.28
7830;BMP180;3960;51.86894000;5.39848000;2023-02-23T11:26:56;101652.41;;;10.33
7830;BMP180;3960;51.86894000;5.39848000;2023-02-23T11:29:35;101642.34;;;10.26
7830;BMP180;3960;51.86894000;5.39848000;2023-02-23T11:32:31;101658.22;;;10.38
7830;BMP180;3960;51.86894000;5.39848000;2023-02-23T11:37:44;101638.44;;;10.24
7830;BMP180;3960;51.86894000;5.39848000;2023-02-23T11:40:18;101655.13;;;10.36
7830;BMP180;3960;51.86894000;5.39848000;2023-02-23T11:42:52;101661.31;;;10.40
7830;BMP180;3960;51.86894000;5.39848000;2023-02-23T11:45:18;101632.66;;;10.25
7830;BMP180;3960;51.86894000;5.39848000;2023-02-23T11:47:49;101641.56;;;10.29
7830;BMP180;3960;51.86894000;5.39848000;2023-02-23T11:50:21;101639.66;;;10.26
7830;BMP180;3960;51.86894000;5.39848000;2023-02-23T11:52:54;101653.97;;;10.34
7830;BMP180;3960;51.86894000;5.39848000;2023-02-23T11:55:21;101669.41;;;10.33
7830;BMP180;3960;51.86894000;5.39848000;2023-02-23T11:57:47;101620.19;;;10.00
7830;BMP180;3960;51.86894000;5.39848000;2023-02-23T12:00:25;101669.81;;;10.39
7830;BMP180;3960;51.86894000;5.39848000;2023-02-23T12:02:57;101645.44;;;10.28
7830;BMP180;3960;51.86894000;5.39848000;2023-02-23T12:05:31;101662.13;;;10.48
7830;BMP180;3960;51.86894000;5.39848000;2023-02-23T12:08:15;101638.91;;;10.43
7830;BMP180;3960;51.86894000;5.39848000;2023-02-23T12:10:46;101633.09;;;10.48
7830;BMP180;3960;51.86894000;5.39848000;2023-02-23T12:16:03;101646.25;;;10.53
7830;BMP180;3960;51.86894000;5.39848000;2023-02-23T12:21:12;101638.53;;;10.59
7830;BMP180;3960;51.86894000;5.39848000;2023-02-23T12:23:41;101640.84;;;10.60
7830;BMP180;3960;51.86894000;5.39848000;2023-02-23T12:26:19;101605.66;;;10.43
7830;BMP180;3960;51.86894000;5.39848000;2023-02-23T12:29:03;101583.97;;;10.36
7830;BMP180;3960;51.86894000;5.39848000;2023-02-23T12:31:48;101647.84;;;10.79
7830;BMP180;3960;51.86894000;5.39848000;2023-02-23T12:36:49;101652.13;;;10.80
7830;BMP180;3960;51.86894000;5.39848000;2023-02-23T12:39:38;101653.66;;;10.74
7830;BMP180;3960;51.86894000;5.39848000;2023-02-23T12:42:24;101648.97;;;10.60
7830;BMP180;3960;51.86894000;5.39848000;2023-02-23T12:44:55;101639.66;;;10.47
7830;BMP180;3960;51.86894000;5.39848000;2023-02-23T12:47:52;101642.75;;;10.39
7830;BMP180;3960;51.86894000;5.39848000;2023-02-23T12:50:32;101652.41;;;10.36
7830;BMP180;3960;51.86894000;5.39848000;2023-02-23T12:53:10;101641.53;;;10.22
7830;BMP180;3960;51.86894000;5.39848000;2023-02-23T12:58:21;101657.03;;;10.22
7830;BMP180;3960;51.86894000;5.39848000;2023-02-23T13:01:05;101656.59;;;10.17
7830;BMP180;3960;51.86894000;5.39848000;2023-02-23T13:04:02;101612.78;;;9.83
7830;BMP180;3960;51.86894000;5.39848000;2023-02-23T13:09:42;101661.81;;;9.82
7830;BMP180;3960;51.86894000;5.39848000;2023-02-23T13:12:21;101654.06;;;9.73
7830;BMP180;3960;51.86894000;5.39848000;2023-02-23T13:14:59;101622.66;;;9.51
7830;BMP180;3960;51.86894000;5.39848000;2023-02-23T13:17:40;101654.44;;;9.68
7830;BMP180;3960;51.86894000;5.39848000;2023-02-23T13:20:29;101649.75;;;9.62
7830;BMP180;3960;51.86894000;5.39848000;2023-02-23T13:23:13;101652.41;;;9.58
7830;BMP180;3960;51.86894000;5.39848000;2023-02-23T13:25:58;101643.97;;;9.63
7830;BMP180;3960;51.86894000;5.39848000;2023-02-23T13:28:52;101641.28;;;9.67
7830;BMP180;3960;51.86894000;5.39848000;2023-02-23T13:31:24;101644.34;;;9.65
7830;BMP180;3960;51.86894000;5.39848000;2023-02-23T13:33:51;101647.06;;;9.69
7830;BMP180;3960;51.86894000;5.39848000;2023-02-23T13:36:18;101638.59;;;9.70
7830;BMP180;3960;51.86894000;5.39848000;2023-02-23T13:48:02;101639.00;;;9.79
7830;BMP180;3960;51.86894000;5.39848000;2023-02-23T13:50:41;101638.63;;;9.77
7830;BMP180;3960;51.86894000;5.39848000;2023-02-23T13:53:27;101651.78;;;9.82
7830;BMP180;3960;51.86894000;5.39848000;2023-02-23T13:55:58;101601.78;;;9.48
7830;BMP180;3960;51.86894000;5.39848000;2023-02-23T13:58:29;101647.94;;;9.83
7830;BMP180;3960;51.86894000;5.39848000;2023-02-23T14:01:15;101657.59;;;9.88
7830;BMP180;3960;51.86894000;5.39848000;2023-02-23T14:03:51;101640.22;;;9.89
7830;BMP180;3960;51.86894000;5.39848000;2023-02-23T14:06:18;101644.16;;;9.98